Weather at Jorge E. Gonzalez Torres Airport

Public forecast

Using degrees Celsius for public forecast. Weather courtesy of forecast.io.

Current aviation weather report (METAR) for Jorge E. Gonzalez Torres Airport

Report is more than 6 hours old.

Retrieved 2020/08/14 14:00 UTC (8 months ago):

SKSJ 141400Z 00000KT 9999 SCT010 26/24 A2988

Closest aviation forecast (TAF) to Jorge E. Gonzalez Torres Airport

Forecast is more than 12 hours old.

Closest forecast is El Eden Airport, 218.5 nm (404.7 km) WNW. Retrieved 2020/12/14 06:45 UTC (4 months ago):

TAF SKAR 140430Z 1406/1506NIL